createdAt,value
2022-09-23T00:01:01.702Z,97.73
2022-09-23T00:06:12.521Z,97.57
2022-09-23T00:11:19.609Z,97.27
2022-09-23T00:16:26.410Z,97.31
2022-09-23T00:21:29.570Z,97.08
2022-09-23T00:26:32.255Z,97.25
2022-09-23T00:31:34.989Z,97.39
2022-09-23T00:36:38.680Z,97.50
2022-09-23T00:41:41.654Z,97.82
2022-09-23T00:46:44.513Z,97.67
2022-09-23T00:51:54.618Z,97.20
2022-09-23T00:56:59.788Z,97.06
2022-09-23T01:02:03.803Z,97.62
2022-09-23T01:07:09.638Z,98.12
2022-09-23T01:12:22.817Z,98.25
2022-09-23T01:17:47.612Z,98.27
2022-09-23T01:23:09.196Z,98.68
2022-09-23T01:28:50.884Z,98.26
2022-09-23T01:34:04.813Z,98.01
2022-09-23T01:39:24.290Z,98.07
2022-09-23T01:44:55.029Z,97.69
2022-09-23T01:50:29.361Z,97.51
2022-09-23T01:55:36.928Z,97.41
2022-09-23T02:00:50.329Z,97.81
2022-09-23T02:06:01.708Z,98.05
2022-09-23T02:11:10.665Z,98.45
2022-09-23T02:16:39.996Z,98.18
2022-09-23T02:21:52.684Z,98.22
2022-09-23T02:27:07.978Z,98.46
2022-09-23T02:32:15.902Z,98.08
2022-09-23T02:37:49.589Z,98.37
2022-09-23T02:43:28.145Z,98.25
2022-09-23T02:48:36.308Z,98.92
2022-09-23T02:53:40.344Z,98.15
2022-09-23T02:58:43.928Z,98.25
2022-09-23T03:03:53.868Z,98.44
2022-09-23T03:09:08.483Z,98.71
2022-09-23T03:14:34.842Z,98.43
2022-09-23T03:19:50.741Z,98.69
2022-09-23T03:24:56.097Z,98.85
2022-09-23T03:29:59.641Z,99.23
2022-09-23T03:35:05.792Z,98.93
2022-09-23T03:40:27.278Z,100.00
2022-09-23T03:45:34.251Z,100.00
2022-09-23T03:50:39.566Z,100.00
2022-09-23T03:55:42.301Z,100.00
2022-09-23T04:00:45.345Z,100.00
2022-09-23T04:05:48.600Z,100.00
2022-09-23T04:10:54.756Z,99.76
2022-09-23T04:15:58.147Z,99.89
2022-09-23T04:21:01.413Z,99.63
2022-09-23T04:26:05.782Z,99.68
2022-09-23T04:31:10.054Z,99.00
2022-09-23T04:36:13.231Z,98.90
2022-09-23T04:41:17.650Z,99.33
2022-09-23T04:46:21.055Z,98.67
2022-09-23T04:51:26.062Z,98.25
2022-09-23T04:56:32.691Z,98.06
2022-09-23T05:01:36.667Z,96.85
2022-09-23T05:06:39.772Z,95.78
2022-09-23T05:11:43.584Z,95.73
2022-09-23T05:16:46.327Z,95.77
2022-09-23T05:21:49.070Z,95.16
2022-09-23T05:26:55.985Z,95.48
2022-09-23T05:31:58.728Z,95.14
2022-09-23T05:37:01.507Z,95.00
2022-09-23T05:42:05.017Z,95.06
2022-09-23T05:47:07.822Z,94.30
2022-09-23T05:52:10.613Z,93.94
2022-09-23T05:57:13.441Z,93.32
2022-09-23T06:02:16.310Z,92.43
2022-09-23T06:07:19.822Z,91.36
2022-09-23T06:12:23.119Z,91.05
2022-09-23T06:17:25.953Z,90.40
2022-09-23T06:22:28.765Z,89.96
2022-09-23T06:27:31.847Z,87.99
2022-09-23T06:32:35.206Z,86.91
2022-09-23T06:37:37.978Z,87.61
2022-09-23T06:42:47.981Z,87.79
2022-09-23T06:47:58.854Z,87.66
2022-09-23T06:53:04.929Z,86.20
2022-09-23T06:58:09.307Z,84.16
2022-09-23T07:03:12.495Z,81.19
2022-09-23T07:08:16.999Z,80.67
2022-09-23T07:13:20.978Z,81.02
2022-09-23T07:18:25.589Z,81.66
2022-09-23T07:23:28.542Z,81.66
2022-09-23T07:28:32.405Z,81.68
2022-09-23T07:33:43.800Z,81.50
2022-09-23T07:38:47.693Z,80.62
2022-09-23T07:43:55.749Z,80.03
2022-09-23T07:49:06.080Z,74.75
2022-09-23T07:54:13.105Z,71.71
2022-09-23T07:59:18.392Z,68.74
2022-09-23T08:04:25.032Z,68.41
2022-09-23T08:09:32.236Z,67.86
2022-09-23T08:14:35.459Z,66.83
2022-09-23T08:19:38.299Z,67.75
2022-09-23T08:24:41.281Z,67.59
2022-09-23T08:29:44.962Z,66.84
2022-09-23T08:34:47.818Z,68.05
2022-09-23T08:39:50.613Z,69.16
2022-09-23T08:44:58.974Z,70.57
2022-09-23T08:50:09.906Z,71.46
2022-09-23T08:55:17.101Z,71.75
2022-09-23T09:00:26.139Z,71.68
2022-09-23T09:05:30.081Z,71.14
2022-09-23T09:16:11.561Z,72.14
2022-09-23T09:21:16.307Z,71.14
2022-09-23T09:26:23.806Z,71.34
2022-09-23T09:31:36.281Z,71.87
2022-09-23T09:36:51.548Z,71.21
2022-09-23T09:41:58.643Z,71.31
2022-09-23T09:47:12.426Z,71.12
2022-09-23T09:52:30.863Z,70.98
2022-09-23T09:57:42.826Z,70.54
2022-09-23T10:02:47.491Z,70.24
2022-09-23T10:07:50.239Z,70.89
2022-09-23T10:12:53.201Z,70.47
2022-09-23T10:17:56.823Z,69.70
2022-09-23T10:23:07.490Z,68.07
2022-09-23T10:28:38.554Z,68.53
2022-09-23T10:33:48.254Z,67.13
2022-09-23T10:39:20.451Z,66.31
2022-09-23T10:44:56.606Z,65.83
2022-09-23T10:50:14.755Z,65.71
2022-09-23T10:55:29.848Z,66.07
2022-09-23T11:00:37.937Z,65.99
2022-09-23T11:05:56.338Z,66.28
2022-09-23T11:11:22.459Z,65.53
2022-09-23T11:17:05.906Z,64.75
2022-09-23T11:22:46.269Z,63.14
2022-09-23T11:28:10.613Z,63.31
2022-09-23T11:33:27.988Z,62.84
2022-09-23T11:38:48.681Z,61.15
2022-09-23T11:44:28.515Z,62.35
2022-09-23T11:49:39.394Z,63.08
2022-09-23T11:54:54.503Z,63.53
2022-09-23T12:00:04.980Z,63.85
2022-09-23T12:05:16.730Z,65.27
2022-09-23T12:10:22.213Z,66.25
2022-09-23T12:15:50.647Z,66.29
2022-09-23T12:21:27.153Z,66.82
2022-09-23T12:26:35.850Z,67.70
2022-09-23T12:31:42.068Z,68.23
2022-09-23T12:36:47.319Z,68.39
2022-09-23T12:41:58.499Z,68.01
2022-09-23T12:47:25.732Z,67.96
2022-09-23T12:52:31.980Z,67.65
2022-09-23T12:57:34.895Z,68.06
2022-09-23T13:02:47.037Z,67.98
2022-09-23T13:07:51.098Z,66.97
2022-09-23T13:12:55.902Z,66.92
2022-09-23T13:18:20.581Z,65.66
2022-09-23T13:23:27.332Z,65.12
2022-09-23T13:28:30.180Z,65.01
2022-09-23T13:33:44.309Z,65.33
2022-09-23T13:38:48.419Z,64.84
2022-09-23T13:43:56.886Z,64.02
2022-09-23T13:48:59.800Z,64.63
2022-09-23T13:54:05.275Z,64.05
2022-09-23T13:59:28.454Z,64.24
2022-09-23T14:04:31.391Z,63.08
2022-09-23T14:09:36.053Z,61.72
2022-09-23T14:14:42.371Z,63.30
2022-09-23T14:19:46.476Z,64.10
2022-09-23T14:24:49.912Z,63.78
2022-09-23T14:29:53.377Z,63.34
2022-09-23T14:35:03.768Z,64.05
2022-09-23T14:40:13.456Z,64.06
2022-09-23T14:45:26.206Z,64.68
2022-09-23T14:50:39.363Z,64.18
2022-09-23T14:55:42.951Z,64.42
2022-09-23T15:00:57.105Z,65.28
2022-09-23T15:06:09.071Z,66.90
2022-09-23T15:11:12.209Z,67.52
2022-09-23T15:16:16.844Z,67.80
2022-09-23T15:21:22.002Z,68.07
2022-09-23T15:26:39.370Z,68.28
2022-09-23T15:31:42.935Z,68.66
2022-09-23T15:36:46.084Z,68.96
2022-09-23T15:41:49.382Z,69.43
2022-09-23T15:47:00.017Z,69.49
2022-09-23T15:52:05.234Z,69.27
2022-09-23T15:57:08.031Z,70.20
2022-09-23T16:02:23.272Z,70.63
2022-09-23T16:07:26.154Z,71.14
2022-09-23T16:12:29.352Z,71.63
2022-09-23T16:17:32.361Z,72.39
2022-09-23T16:22:35.587Z,72.92
2022-09-23T16:27:39.902Z,73.32
2022-09-23T16:32:43.453Z,73.96
2022-09-23T16:37:47.853Z,74.31
2022-09-23T16:42:52.532Z,74.42
2022-09-23T16:47:55.286Z,74.61
2022-09-23T16:52:58.249Z,74.93
2022-09-23T16:58:01.934Z,75.15
2022-09-23T17:03:24.193Z,75.52
2022-09-23T17:08:26.995Z,75.92
2022-09-23T17:13:31.256Z,76.39
2022-09-23T17:18:34.652Z,76.92
2022-09-23T17:23:38.417Z,77.14
2022-09-23T17:28:41.357Z,77.11
2022-09-23T17:33:44.337Z,77.07
2022-09-23T17:38:48.591Z,77.05
2022-09-23T17:43:57.161Z,77.27
2022-09-23T17:49:00.062Z,77.47
2022-09-23T17:54:03.044Z,77.62
2022-09-23T17:59:06.763Z,77.65
2022-09-23T18:04:12.199Z,78.11
2022-09-23T18:09:15.497Z,78.54
2022-09-23T18:14:21.224Z,78.94
2022-09-23T18:19:25.142Z,79.10
2022-09-23T18:24:32.764Z,79.25
2022-09-23T18:29:37.125Z,79.81
2022-09-23T18:34:43.657Z,80.15
2022-09-23T18:39:49.166Z,80.56
2022-09-23T18:44:56.440Z,81.04
2022-09-23T18:50:34.469Z,81.63
2022-09-23T18:55:37.347Z,82.27
2022-09-23T19:00:42.739Z,82.51
2022-09-23T19:05:46.322Z,82.78
2022-09-23T19:10:55.938Z,82.71
2022-09-23T19:16:17.299Z,83.36
2022-09-23T19:21:22.437Z,83.66
2022-09-23T19:26:32.333Z,83.79
2022-09-23T19:31:40.823Z,84.10
2022-09-23T19:36:45.950Z,84.08
2022-09-23T19:41:49.984Z,83.84
2022-09-23T19:46:56.313Z,83.71
2022-09-23T19:52:02.094Z,84.06
2022-09-23T19:57:04.897Z,84.18
2022-09-23T20:02:12.359Z,84.20
2022-09-23T20:07:15.769Z,84.12
2022-09-23T20:12:18.518Z,84.63
2022-09-23T20:17:21.532Z,85.02
2022-09-23T20:22:25.410Z,84.85
2022-09-23T20:27:32.633Z,84.67
2022-09-23T20:32:40.758Z,84.83
2022-09-23T20:37:46.865Z,84.91
2022-09-23T20:42:50.115Z,84.98
2022-09-23T20:47:52.831Z,84.80
2022-09-23T20:52:56.471Z,85.30
2022-09-23T20:57:59.949Z,85.63
2022-09-23T21:03:02.770Z,85.73
2022-09-23T21:08:05.592Z,85.85
2022-09-23T21:13:08.292Z,86.08
2022-09-23T21:18:14.602Z,86.24
2022-09-23T21:23:21.170Z,86.30
2022-09-23T21:28:24.738Z,86.11
2022-09-23T21:33:28.919Z,86.13
2022-09-23T21:38:37.669Z,86.11
2022-09-23T21:43:40.888Z,86.05
2022-09-23T21:48:43.755Z,85.89
2022-09-23T21:53:47.287Z,85.60
2022-09-23T21:58:52.255Z,85.60
2022-09-23T22:03:58.103Z,85.66
2022-09-23T22:09:04.342Z,85.65
2022-09-23T22:14:09.698Z,85.58
2022-09-23T22:19:13.719Z,85.43
2022-09-23T22:24:16.745Z,85.73
2022-09-23T22:29:38.610Z,85.75
2022-09-23T22:34:51.983Z,85.49
2022-09-23T22:39:55.329Z,85.45
2022-09-23T22:44:58.162Z,85.48
2022-09-23T22:50:01.731Z,85.42
2022-09-23T22:55:06.812Z,85.40
2022-09-23T23:00:11.569Z,85.49
2022-09-23T23:05:14.688Z,85.79
2022-09-23T23:10:17.577Z,85.77
2022-09-23T23:15:20.746Z,85.56
2022-09-23T23:20:23.787Z,85.44
2022-09-23T23:25:26.490Z,85.72
2022-09-23T23:30:29.274Z,85.77
2022-09-23T23:35:31.988Z,85.62
2022-09-23T23:40:37.746Z,85.77
2022-09-23T23:45:40.518Z,85.77
2022-09-23T23:50:56.454Z,85.75
2022-09-23T23:56:14.629Z,85.57
